sensor_id;sensor_type;location;lat;lon;timestamp;temperature;humidity
21171;DHT22;10743;52.160;20.910;2024-01-25T00:00:57;23.80;35.90
21171;DHT22;10743;52.160;20.910;2024-01-25T00:03:25;23.80;35.90
21171;DHT22;10743;52.160;20.910;2024-01-25T00:05:52;23.80;35.70
21171;DHT22;10743;52.160;20.910;2024-01-25T00:08:19;23.80;35.70
21171;DHT22;10743;52.160;20.910;2024-01-25T00:10:47;23.90;35.40
21171;DHT22;10743;52.160;20.910;2024-01-25T00:13:14;23.90;35.30
21171;DHT22;10743;52.160;20.910;2024-01-25T00:15:41;23.80;35.30
21171;DHT22;10743;52.160;20.910;2024-01-25T00:18:08;23.80;35.20
21171;DHT22;10743;52.160;20.910;2024-01-25T00:20:35;23.80;35.40
21171;DHT22;10743;52.160;20.910;2024-01-25T00:23:03;23.80;35.30
21171;DHT22;10743;52.160;20.910;2024-01-25T00:25:30;23.70;35.50
21171;DHT22;10743;52.160;20.910;2024-01-25T00:27:57;23.70;35.80
21171;DHT22;10743;52.160;20.910;2024-01-25T00:30:24;23.60;35.90
21171;DHT22;10743;52.160;20.910;2024-01-25T00:32:56;23.60;36.00
21171;DHT22;10743;52.160;20.910;2024-01-25T00:35:24;23.60;36.00
21171;DHT22;10743;52.160;20.910;2024-01-25T00:37:52;23.60;36.10
21171;DHT22;10743;52.160;20.910;2024-01-25T00:40:20;23.50;36.20
21171;DHT22;10743;52.160;20.910;2024-01-25T00:42:47;23.60;36.70
21171;DHT22;10743;52.160;20.910;2024-01-25T00:45:20;23.60;36.00
21171;DHT22;10743;52.160;20.910;2024-01-25T00:47:48;23.50;36.10
21171;DHT22;10743;52.160;20.910;2024-01-25T00:50:17;23.50;36.00
21171;DHT22;10743;52.160;20.910;2024-01-25T00:52:48;23.50;36.20
21171;DHT22;10743;52.160;20.910;2024-01-25T00:55:16;23.50;36.30
21171;DHT22;10743;52.160;20.910;2024-01-25T00:57:44;23.50;36.20
21171;DHT22;10743;52.160;20.910;2024-01-25T01:00:11;23.50;36.40
21171;DHT22;10743;52.160;20.910;2024-01-25T01:02:42;23.50;36.40
21171;DHT22;10743;52.160;20.910;2024-01-25T01:05:11;23.60;36.10
21171;DHT22;10743;52.160;20.910;2024-01-25T01:07:39;23.50;36.20
21171;DHT22;10743;52.160;20.910;2024-01-25T01:10:09;23.50;36.40
21171;DHT22;10743;52.160;20.910;2024-01-25T01:12:37;23.50;36.30
21171;DHT22;10743;52.160;20.910;2024-01-25T01:15:05;23.50;36.30
21171;DHT22;10743;52.160;20.910;2024-01-25T01:17:32;23.40;36.30
21171;DHT22;10743;52.160;20.910;2024-01-25T01:19:59;23.40;36.10
21171;DHT22;10743;52.160;20.910;2024-01-25T01:22:27;23.50;35.90
21171;DHT22;10743;52.160;20.910;2024-01-25T01:24:54;23.50;35.90
21171;DHT22;10743;52.160;20.910;2024-01-25T01:27:21;23.50;36.00
21171;DHT22;10743;52.160;20.910;2024-01-25T01:29:48;23.50;35.90
21171;DHT22;10743;52.160;20.910;2024-01-25T01:32:15;23.50;36.00
21171;DHT22;10743;52.160;20.910;2024-01-25T01:34:42;23.50;36.00
21171;DHT22;10743;52.160;20.910;2024-01-25T01:37:10;23.50;36.00
21171;DHT22;10743;52.160;20.910;2024-01-25T01:39:37;23.50;36.00
21171;DHT22;10743;52.160;20.910;2024-01-25T01:42:04;23.50;36.00
21171;DHT22;10743;52.160;20.910;2024-01-25T01:44:31;23.40;36.00
21171;DHT22;10743;52.160;20.910;2024-01-25T01:46:58;23.50;36.00
21171;DHT22;10743;52.160;20.910;2024-01-25T01:49:26;23.50;35.90
21171;DHT22;10743;52.160;20.910;2024-01-25T01:51:54;23.50;35.80
21171;DHT22;10743;52.160;20.910;2024-01-25T01:54:22;23.50;35.80
21171;DHT22;10743;52.160;20.910;2024-01-25T01:56:49;23.50;35.90
21171;DHT22;10743;52.160;20.910;2024-01-25T01:59:17;23.40;35.90
21171;DHT22;10743;52.160;20.910;2024-01-25T02:01:44;23.50;35.80
21171;DHT22;10743;52.160;20.910;2024-01-25T02:04:11;23.50;35.70
21171;DHT22;10743;52.160;20.910;2024-01-25T02:06:39;23.40;35.70
21171;DHT22;10743;52.160;20.910;2024-01-25T02:09:06;23.50;35.70
21171;DHT22;10743;52.160;20.910;2024-01-25T02:11:34;23.50;35.70
21171;DHT22;10743;52.160;20.910;2024-01-25T02:14:01;23.40;35.60
21171;DHT22;10743;52.160;20.910;2024-01-25T02:16:28;23.40;35.70
21171;DHT22;10743;52.160;20.910;2024-01-25T02:18:55;23.40;35.70
21171;DHT22;10743;52.160;20.910;2024-01-25T02:21:25;23.40;35.70
21171;DHT22;10743;52.160;20.910;2024-01-25T02:23:52;23.50;35.70
21171;DHT22;10743;52.160;20.910;2024-01-25T02:26:19;23.50;35.70
21171;DHT22;10743;52.160;20.910;2024-01-25T02:28:46;23.30;35.80
21171;DHT22;10743;52.160;20.910;2024-01-25T02:31:13;23.30;36.00
21171;DHT22;10743;52.160;20.910;2024-01-25T02:33:40;23.40;36.00
21171;DHT22;10743;52.160;20.910;2024-01-25T02:36:08;23.30;36.00
21171;DHT22;10743;52.160;20.910;2024-01-25T02:38:35;23.30;36.20
21171;DHT22;10743;52.160;20.910;2024-01-25T02:41:02;23.30;36.20
21171;DHT22;10743;52.160;20.910;2024-01-25T02:43:29;23.30;36.20
21171;DHT22;10743;52.160;20.910;2024-01-25T02:45:56;23.20;36.20
21171;DHT22;10743;52.160;20.910;2024-01-25T02:48:23;23.20;36.10
21171;DHT22;10743;52.160;20.910;2024-01-25T02:50:50;23.30;36.00
21171;DHT22;10743;52.160;20.910;2024-01-25T02:53:18;23.20;36.10
21171;DHT22;10743;52.160;20.910;2024-01-25T02:55:44;23.20;36.30
21171;DHT22;10743;52.160;20.910;2024-01-25T02:58:11;23.20;36.50
21171;DHT22;10743;52.160;20.910;2024-01-25T03:00:39;23.10;36.60
21171;DHT22;10743;52.160;20.910;2024-01-25T03:03:06;23.20;36.60
21171;DHT22;10743;52.160;20.910;2024-01-25T03:05:33;23.10;36.70
21171;DHT22;10743;52.160;20.910;2024-01-25T03:08:01;23.20;36.60
21171;DHT22;10743;52.160;20.910;2024-01-25T03:10:29;23.10;36.80
21171;DHT22;10743;52.160;20.910;2024-01-25T03:12:56;23.10;36.90
21171;DHT22;10743;52.160;20.910;2024-01-25T03:15:23;23.10;36.90
21171;DHT22;10743;52.160;20.910;2024-01-25T03:17:50;23.20;37.50
21171;DHT22;10743;52.160;20.910;2024-01-25T03:20:17;23.10;36.80
21171;DHT22;10743;52.160;20.910;2024-01-25T03:22:44;23.10;36.80
21171;DHT22;10743;52.160;20.910;2024-01-25T03:25:11;23.10;36.80
21171;DHT22;10743;52.160;20.910;2024-01-25T03:27:38;23.10;37.00
21171;DHT22;10743;52.160;20.910;2024-01-25T03:30:06;23.10;37.00
21171;DHT22;10743;52.160;20.910;2024-01-25T03:32:34;23.00;36.90
21171;DHT22;10743;52.160;20.910;2024-01-25T03:35:01;22.90;37.10
21171;DHT22;10743;52.160;20.910;2024-01-25T03:37:28;22.90;37.10
21171;DHT22;10743;52.160;20.910;2024-01-25T03:39:55;22.90;37.20
21171;DHT22;10743;52.160;20.910;2024-01-25T03:42:23;22.90;37.20
21171;DHT22;10743;52.160;20.910;2024-01-25T03:44:50;22.90;37.10
21171;DHT22;10743;52.160;20.910;2024-01-25T03:47:17;22.90;36.90
21171;DHT22;10743;52.160;20.910;2024-01-25T03:49:45;22.90;36.90
21171;DHT22;10743;52.160;20.910;2024-01-25T03:52:12;22.80;37.10
21171;DHT22;10743;52.160;20.910;2024-01-25T03:54:39;22.90;37.10
21171;DHT22;10743;52.160;20.910;2024-01-25T03:57:06;22.90;37.00
21171;DHT22;10743;52.160;20.910;2024-01-25T03:59:33;22.80;37.00
21171;DHT22;10743;52.160;20.910;2024-01-25T04:02:01;22.90;37.10
21171;DHT22;10743;52.160;20.910;2024-01-25T04:04:28;22.80;37.00
21171;DHT22;10743;52.160;20.910;2024-01-25T04:06:55;22.90;36.90
21171;DHT22;10743;52.160;20.910;2024-01-25T04:09:22;22.80;37.00
21171;DHT22;10743;52.160;20.910;2024-01-25T04:11:49;22.80;37.10
21171;DHT22;10743;52.160;20.910;2024-01-25T04:14:16;22.80;37.20
21171;DHT22;10743;52.160;20.910;2024-01-25T04:16:43;22.70;37.20
21171;DHT22;10743;52.160;20.910;2024-01-25T04:19:13;22.70;37.30
21171;DHT22;10743;52.160;20.910;2024-01-25T04:21:40;22.80;37.20
21171;DHT22;10743;52.160;20.910;2024-01-25T04:24:08;22.80;37.30
21171;DHT22;10743;52.160;20.910;2024-01-25T04:26:34;22.70;37.30
21171;DHT22;10743;52.160;20.910;2024-01-25T04:29:02;22.70;37.30
21171;DHT22;10743;52.160;20.910;2024-01-25T04:31:28;22.70;37.90
21171;DHT22;10743;52.160;20.910;2024-01-25T04:33:56;22.60;37.30
21171;DHT22;10743;52.160;20.910;2024-01-25T04:36:23;22.70;37.20
21171;DHT22;10743;52.160;20.910;2024-01-25T04:38:50;22.60;37.30
21171;DHT22;10743;52.160;20.910;2024-01-25T04:41:17;22.60;37.20
21171;DHT22;10743;52.160;20.910;2024-01-25T04:43:44;22.70;37.00
21171;DHT22;10743;52.160;20.910;2024-01-25T04:46:13;22.70;37.10
21171;DHT22;10743;52.160;20.910;2024-01-25T04:48:40;22.60;36.90
21171;DHT22;10743;52.160;20.910;2024-01-25T04:51:07;22.60;37.00
21171;DHT22;10743;52.160;20.910;2024-01-25T04:53:35;22.60;37.00
21171;DHT22;10743;52.160;20.910;2024-01-25T04:56:02;22.60;37.10
21171;DHT22;10743;52.160;20.910;2024-01-25T04:58:30;22.60;37.00
21171;DHT22;10743;52.160;20.910;2024-01-25T05:00:57;22.70;36.90
21171;DHT22;10743;52.160;20.910;2024-01-25T05:03:24;22.70;36.80
21171;DHT22;10743;52.160;20.910;2024-01-25T05:05:51;22.70;36.70
21171;DHT22;10743;52.160;20.910;2024-01-25T05:08:18;22.70;36.70
21171;DHT22;10743;52.160;20.910;2024-01-25T05:10:45;22.60;36.70
21171;DHT22;10743;52.160;20.910;2024-01-25T05:13:12;22.60;36.70
21171;DHT22;10743;52.160;20.910;2024-01-25T05:15:40;22.70;36.50
21171;DHT22;10743;52.160;20.910;2024-01-25T05:18:07;22.70;36.50
21171;DHT22;10743;52.160;20.910;2024-01-25T05:20:34;22.70;36.50
21171;DHT22;10743;52.160;20.910;2024-01-25T05:23:04;22.70;36.30
21171;DHT22;10743;52.160;20.910;2024-01-25T05:25:32;22.70;36.30
21171;DHT22;10743;52.160;20.910;2024-01-25T05:27:59;22.70;36.40
21171;DHT22;10743;52.160;20.910;2024-01-25T05:30:27;22.70;36.40
21171;DHT22;10743;52.160;20.910;2024-01-25T05:32:54;22.70;36.30
21171;DHT22;10743;52.160;20.910;2024-01-25T05:35:22;22.70;36.40
21171;DHT22;10743;52.160;20.910;2024-01-25T05:37:52;22.70;36.40
21171;DHT22;10743;52.160;20.910;2024-01-25T05:40:19;22.60;36.40
21171;DHT22;10743;52.160;20.910;2024-01-25T05:42:46;22.70;36.40
21171;DHT22;10743;52.160;20.910;2024-01-25T05:45:13;22.70;36.20
21171;DHT22;10743;52.160;20.910;2024-01-25T05:47:40;22.60;36.20
21171;DHT22;10743;52.160;20.910;2024-01-25T05:50:08;22.60;36.40
21171;DHT22;10743;52.160;20.910;2024-01-25T05:52:35;22.60;36.40
21171;DHT22;10743;52.160;20.910;2024-01-25T05:55:07;22.60;36.30
21171;DHT22;10743;52.160;20.910;2024-01-25T05:57:36;22.60;36.30
21171;DHT22;10743;52.160;20.910;2024-01-25T06:00:04;22.70;36.20
21171;DHT22;10743;52.160;20.910;2024-01-25T06:02:33;22.70;36.20
21171;DHT22;10743;52.160;20.910;2024-01-25T06:05:01;22.70;36.10
21171;DHT22;10743;52.160;20.910;2024-01-25T06:07:28;22.70;36.10
21171;DHT22;10743;52.160;20.910;2024-01-25T06:09:56;22.70;36.10
21171;DHT22;10743;52.160;20.910;2024-01-25T06:12:23;22.60;35.80
21171;DHT22;10743;52.160;20.910;2024-01-25T06:14:50;22.70;36.00
21171;DHT22;10743;52.160;20.910;2024-01-25T06:17:19;22.80;36.00
21171;DHT22;10743;52.160;20.910;2024-01-25T06:19:46;22.70;36.00
21171;DHT22;10743;52.160;20.910;2024-01-25T06:22:13;22.70;35.90
21171;DHT22;10743;52.160;20.910;2024-01-25T06:24:40;22.70;36.00
21171;DHT22;10743;52.160;20.910;2024-01-25T06:27:07;22.70;36.10
21171;DHT22;10743;52.160;20.910;2024-01-25T06:29:36;22.70;36.00
21171;DHT22;10743;52.160;20.910;2024-01-25T06:32:03;22.70;36.00
21171;DHT22;10743;52.160;20.910;2024-01-25T06:34:39;22.70;36.00
21171;DHT22;10743;52.160;20.910;2024-01-25T06:37:06;22.70;36.00
21171;DHT22;10743;52.160;20.910;2024-01-25T06:39:33;22.70;35.90
21171;DHT22;10743;52.160;20.910;2024-01-25T06:42:01;22.80;35.90
21171;DHT22;10743;52.160;20.910;2024-01-25T06:44:30;22.70;36.00
21171;DHT22;10743;52.160;20.910;2024-01-25T06:46:58;22.70;36.10
21171;DHT22;10743;52.160;20.910;2024-01-25T06:49:25;22.70;36.10
21171;DHT22;10743;52.160;20.910;2024-01-25T06:51:52;22.80;36.20
21171;DHT22;10743;52.160;20.910;2024-01-25T06:54:19;22.70;36.30
21171;DHT22;10743;52.160;20.910;2024-01-25T06:56:46;22.80;36.40
21171;DHT22;10743;52.160;20.910;2024-01-25T06:59:13;22.70;36.40
21171;DHT22;10743;52.160;20.910;2024-01-25T07:01:40;22.80;36.40
21171;DHT22;10743;52.160;20.910;2024-01-25T07:04:08;22.80;36.50
21171;DHT22;10743;52.160;20.910;2024-01-25T07:06:36;22.80;36.60
21171;DHT22;10743;52.160;20.910;2024-01-25T07:09:03;22.70;36.70
21171;DHT22;10743;52.160;20.910;2024-01-25T07:11:30;22.60;36.70
21171;DHT22;10743;52.160;20.910;2024-01-25T07:13:57;22.60;36.90
21171;DHT22;10743;52.160;20.910;2024-01-25T07:16:24;22.70;37.10
21171;DHT22;10743;52.160;20.910;2024-01-25T07:18:51;22.70;37.00
21171;DHT22;10743;52.160;20.910;2024-01-25T07:21:18;22.60;37.20
21171;DHT22;10743;52.160;20.910;2024-01-25T07:23:45;22.60;37.40
21171;DHT22;10743;52.160;20.910;2024-01-25T07:26:19;22.60;37.30
21171;DHT22;10743;52.160;20.910;2024-01-25T07:28:46;22.60;37.40
21171;DHT22;10743;52.160;20.910;2024-01-25T07:31:13;22.60;37.40
21171;DHT22;10743;52.160;20.910;2024-01-25T07:33:40;22.50;37.50
21171;DHT22;10743;52.160;20.910;2024-01-25T07:36:08;22.60;37.60
21171;DHT22;10743;52.160;20.910;2024-01-25T07:38:35;22.50;37.70
21171;DHT22;10743;52.160;20.910;2024-01-25T07:41:02;22.50;37.70
21171;DHT22;10743;52.160;20.910;2024-01-25T07:43:29;22.50;37.70
21171;DHT22;10743;52.160;20.910;2024-01-25T07:46:02;22.50;37.90
21171;DHT22;10743;52.160;20.910;2024-01-25T07:48:43;22.50;37.80
21171;DHT22;10743;52.160;20.910;2024-01-25T07:51:12;22.50;37.90
21171;DHT22;10743;52.160;20.910;2024-01-25T07:53:40;22.50;37.80
21171;DHT22;10743;52.160;20.910;2024-01-25T07:56:07;22.50;37.70
21171;DHT22;10743;52.160;20.910;2024-01-25T07:58:36;22.60;37.80
21171;DHT22;10743;52.160;20.910;2024-01-25T08:01:04;22.50;37.80
21171;DHT22;10743;52.160;20.910;2024-01-25T08:03:33;22.50;37.90
21171;DHT22;10743;52.160;20.910;2024-01-25T08:06:02;22.50;38.00
21171;DHT22;10743;52.160;20.910;2024-01-25T08:08:30;22.40;38.00
21171;DHT22;10743;52.160;20.910;2024-01-25T08:10:57;22.40;38.10
21171;DHT22;10743;52.160;20.910;2024-01-25T08:13:25;22.50;38.10
21171;DHT22;10743;52.160;20.910;2024-01-25T08:15:56;22.50;37.90
21171;DHT22;10743;52.160;20.910;2024-01-25T08:18:23;22.50;37.90
21171;DHT22;10743;52.160;20.910;2024-01-25T08:20:50;22.50;38.10
21171;DHT22;10743;52.160;20.910;2024-01-25T08:23:18;22.50;38.00
21171;DHT22;10743;52.160;20.910;2024-01-25T08:25:45;22.50;38.00
21171;DHT22;10743;52.160;20.910;2024-01-25T08:28:12;22.60;37.70
21171;DHT22;10743;52.160;20.910;2024-01-25T08:30:39;22.60;37.60
21171;DHT22;10743;52.160;20.910;2024-01-25T08:33:07;22.60;37.80
21171;DHT22;10743;52.160;20.910;2024-01-25T08:35:34;22.50;37.90
21171;DHT22;10743;52.160;20.910;2024-01-25T08:38:02;22.50;38.00
21171;DHT22;10743;52.160;20.910;2024-01-25T08:40:29;22.50;38.20
21171;DHT22;10743;52.160;20.910;2024-01-25T08:42:56;22.40;38.20
21171;DHT22;10743;52.160;20.910;2024-01-25T08:45:24;22.50;38.20
21171;DHT22;10743;52.160;20.910;2024-01-25T08:47:51;22.50;38.20
21171;DHT22;10743;52.160;20.910;2024-01-25T08:50:19;22.50;38.10
21171;DHT22;10743;52.160;20.910;2024-01-25T08:52:47;22.60;38.10
21171;DHT22;10743;52.160;20.910;2024-01-25T08:55:14;22.60;38.20
21171;DHT22;10743;52.160;20.910;2024-01-25T08:57:41;22.60;38.10
21171;DHT22;10743;52.160;20.910;2024-01-25T09:00:09;22.60;38.30
21171;DHT22;10743;52.160;20.910;2024-01-25T09:02:39;22.60;38.20
21171;DHT22;10743;52.160;20.910;2024-01-25T09:05:07;22.60;38.30
21171;DHT22;10743;52.160;20.910;2024-01-25T09:07:35;22.60;38.30
21171;DHT22;10743;52.160;20.910;2024-01-25T09:10:03;22.50;38.40
21171;DHT22;10743;52.160;20.910;2024-01-25T09:12:31;22.50;38.50
21171;DHT22;10743;52.160;20.910;2024-01-25T09:14:59;22.60;38.60
21171;DHT22;10743;52.160;20.910;2024-01-25T09:17:27;22.60;38.60
21171;DHT22;10743;52.160;20.910;2024-01-25T09:19:54;22.60;38.40
21171;DHT22;10743;52.160;20.910;2024-01-25T09:22:22;22.60;38.40
21171;DHT22;10743;52.160;20.910;2024-01-25T09:24:49;22.60;38.50
21171;DHT22;10743;52.160;20.910;2024-01-25T09:27:16;22.60;38.60
21171;DHT22;10743;52.160;20.910;2024-01-25T09:29:44;22.60;38.60
21171;DHT22;10743;52.160;20.910;2024-01-25T09:32:11;22.60;38.60
21171;DHT22;10743;52.160;20.910;2024-01-25T09:34:39;22.60;38.60
21171;DHT22;10743;52.160;20.910;2024-01-25T09:37:19;22.60;38.60
21171;DHT22;10743;52.160;20.910;2024-01-25T09:39:49;22.60;38.70
21171;DHT22;10743;52.160;20.910;2024-01-25T09:42:19;22.60;38.60
21171;DHT22;10743;52.160;20.910;2024-01-25T09:44:46;22.70;38.70
21171;DHT22;10743;52.160;20.910;2024-01-25T09:47:14;22.60;38.70
21171;DHT22;10743;52.160;20.910;2024-01-25T09:49:43;22.60;38.80
21171;DHT22;10743;52.160;20.910;2024-01-25T09:52:13;22.60;38.80
21171;DHT22;10743;52.160;20.910;2024-01-25T09:54:40;22.60;39.60
21171;DHT22;10743;52.160;20.910;2024-01-25T09:57:19;22.60;38.80
21171;DHT22;10743;52.160;20.910;2024-01-25T09:59:49;22.60;38.90
21171;DHT22;10743;52.160;20.910;2024-01-25T10:02:21;22.70;38.90
21171;DHT22;10743;52.160;20.910;2024-01-25T10:04:50;22.70;38.90
21171;DHT22;10743;52.160;20.910;2024-01-25T10:10:10;22.70;38.80
21171;DHT22;10743;52.160;20.910;2024-01-25T10:12:40;22.70;38.90
21171;DHT22;10743;52.160;20.910;2024-01-25T10:15:09;22.70;38.90
21171;DHT22;10743;52.160;20.910;2024-01-25T10:17:37;22.70;38.90
21171;DHT22;10743;52.160;20.910;2024-01-25T10:20:25;22.70;38.90
21171;DHT22;10743;52.160;20.910;2024-01-25T10:22:56;22.70;38.90
21171;DHT22;10743;52.160;20.910;2024-01-25T10:25:26;22.70;38.90
21171;DHT22;10743;52.160;20.910;2024-01-25T10:27:54;22.70;38.90
21171;DHT22;10743;52.160;20.910;2024-01-25T10:30:21;22.70;38.80
21171;DHT22;10743;52.160;20.910;2024-01-25T10:32:50;22.70;38.80
21171;DHT22;10743;52.160;20.910;2024-01-25T10:35:18;22.70;38.90
21171;DHT22;10743;52.160;20.910;2024-01-25T10:37:51;22.70;38.90
21171;DHT22;10743;52.160;20.910;2024-01-25T10:40:20;22.80;38.80
21171;DHT22;10743;52.160;20.910;2024-01-25T10:42:49;22.80;38.90
21171;DHT22;10743;52.160;20.910;2024-01-25T10:45:16;22.70;38.90
21171;DHT22;10743;52.160;20.910;2024-01-25T10:47:48;22.70;38.90
21171;DHT22;10743;52.160;20.910;2024-01-25T10:50:16;22.80;39.10
21171;DHT22;10743;52.160;20.910;2024-01-25T10:52:44;22.80;38.90
21171;DHT22;10743;52.160;20.910;2024-01-25T10:55:12;22.80;38.90
21171;DHT22;10743;52.160;20.910;2024-01-25T10:57:43;22.80;38.90
21171;DHT22;10743;52.160;20.910;2024-01-25T11:00:13;22.80;38.90
21171;DHT22;10743;52.160;20.910;2024-01-25T11:02:42;22.80;38.80
21171;DHT22;10743;52.160;20.910;2024-01-25T11:05:14;22.80;38.90
21171;DHT22;10743;52.160;20.910;2024-01-25T11:07:50;22.80;38.90
21171;DHT22;10743;52.160;20.910;2024-01-25T11:10:19;22.80;39.00
21171;DHT22;10743;52.160;20.910;2024-01-25T11:12:59;22.80;38.90
21171;DHT22;10743;52.160;20.910;2024-01-25T11:18:04;22.90;38.80
21171;DHT22;10743;52.160;20.910;2024-01-25T11:20:34;22.80;38.90
21171;DHT22;10743;52.160;20.910;2024-01-25T11:23:06;22.90;38.90
21171;DHT22;10743;52.160;20.910;2024-01-25T11:25:37;22.80;38.90
21171;DHT22;10743;52.160;20.910;2024-01-25T11:28:05;22.80;38.90
21171;DHT22;10743;52.160;20.910;2024-01-25T11:30:33;22.90;38.70
21171;DHT22;10743;52.160;20.910;2024-01-25T11:33:04;22.90;38.60
21171;DHT22;10743;52.160;20.910;2024-01-25T11:35:33;22.90;38.50
21171;DHT22;10743;52.160;20.910;2024-01-25T11:38:01;22.90;38.50
21171;DHT22;10743;52.160;20.910;2024-01-25T11:40:29;22.90;38.50
21171;DHT22;10743;52.160;20.910;2024-01-25T11:43:05;22.90;38.30
21171;DHT22;10743;52.160;20.910;2024-01-25T11:45:37;22.90;38.30
21171;DHT22;10743;52.160;20.910;2024-01-25T11:48:09;22.90;38.30
21171;DHT22;10743;52.160;20.910;2024-01-25T11:50:38;22.90;38.10
21171;DHT22;10743;52.160;20.910;2024-01-25T11:53:05;23.00;38.20
21171;DHT22;10743;52.160;20.910;2024-01-25T11:55:32;23.00;38.10
21171;DHT22;10743;52.160;20.910;2024-01-25T11:57:59;22.90;38.20
21171;DHT22;10743;52.160;20.910;2024-01-25T12:00:27;22.90;38.30
21171;DHT22;10743;52.160;20.910;2024-01-25T12:02:54;22.90;38.10
21171;DHT22;10743;52.160;20.910;2024-01-25T12:05:22;22.90;38.10
21171;DHT22;10743;52.160;20.910;2024-01-25T12:07:49;22.90;38.10
21171;DHT22;10743;52.160;20.910;2024-01-25T12:10:17;22.90;38.10
21171;DHT22;10743;52.160;20.910;2024-01-25T12:12:45;22.90;38.20
21171;DHT22;10743;52.160;20.910;2024-01-25T12:15:12;23.00;37.80
21171;DHT22;10743;52.160;20.910;2024-01-25T12:17:39;22.90;37.80
21171;DHT22;10743;52.160;20.910;2024-01-25T12:20:07;22.90;37.90
21171;DHT22;10743;52.160;20.910;2024-01-25T12:22:39;22.90;38.10
21171;DHT22;10743;52.160;20.910;2024-01-25T12:25:07;22.90;38.10
21171;DHT22;10743;52.160;20.910;2024-01-25T12:27:39;22.90;38.00
21171;DHT22;10743;52.160;20.910;2024-01-25T12:30:08;22.90;38.00
21171;DHT22;10743;52.160;20.910;2024-01-25T12:32:35;22.90;38.10
21171;DHT22;10743;52.160;20.910;2024-01-25T12:35:03;22.90;38.10
21171;DHT22;10743;52.160;20.910;2024-01-25T12:37:34;22.90;38.10
21171;DHT22;10743;52.160;20.910;2024-01-25T12:40:01;22.90;38.10
21171;DHT22;10743;52.160;20.910;2024-01-25T12:42:29;22.90;38.10
21171;DHT22;10743;52.160;20.910;2024-01-25T12:44:56;22.90;38.20
21171;DHT22;10743;52.160;20.910;2024-01-25T12:47:23;22.90;38.30
21171;DHT22;10743;52.160;20.910;2024-01-25T12:49:50;22.80;38.30
21171;DHT22;10743;52.160;20.910;2024-01-25T12:52:18;22.80;38.30
21171;DHT22;10743;52.160;20.910;2024-01-25T12:54:45;22.80;38.20
21171;DHT22;10743;52.160;20.910;2024-01-25T12:57:12;22.80;38.00
21171;DHT22;10743;52.160;20.910;2024-01-25T12:59:40;22.80;37.90
21171;DHT22;10743;52.160;20.910;2024-01-25T13:02:07;22.80;37.90
21171;DHT22;10743;52.160;20.910;2024-01-25T13:04:35;22.70;37.80
21171;DHT22;10743;52.160;20.910;2024-01-25T13:07:04;22.70;37.70
21171;DHT22;10743;52.160;20.910;2024-01-25T13:09:31;22.70;37.50
21171;DHT22;10743;52.160;20.910;2024-01-25T13:12:00;22.60;37.40
21171;DHT22;10743;52.160;20.910;2024-01-25T13:14:28;22.60;37.30
21171;DHT22;10743;52.160;20.910;2024-01-25T13:16:55;22.60;37.30
21171;DHT22;10743;52.160;20.910;2024-01-25T13:19:22;22.50;37.30
21171;DHT22;10743;52.160;20.910;2024-01-25T13:21:50;22.50;37.40
21171;DHT22;10743;52.160;20.910;2024-01-25T13:24:19;22.50;37.50
21171;DHT22;10743;52.160;20.910;2024-01-25T13:26:46;22.40;37.40
21171;DHT22;10743;52.160;20.910;2024-01-25T13:29:13;22.40;37.40
21171;DHT22;10743;52.160;20.910;2024-01-25T13:31:41;22.40;37.40
21171;DHT22;10743;52.160;20.910;2024-01-25T13:34:08;22.30;37.20
21171;DHT22;10743;52.160;20.910;2024-01-25T13:36:35;22.30;37.30
21171;DHT22;10743;52.160;20.910;2024-01-25T13:39:02;22.30;37.20
21171;DHT22;10743;52.160;20.910;2024-01-25T13:41:30;22.30;37.10
21171;DHT22;10743;52.160;20.910;2024-01-25T13:43:57;22.30;37.00
21171;DHT22;10743;52.160;20.910;2024-01-25T13:46:24;22.30;36.90
21171;DHT22;10743;52.160;20.910;2024-01-25T13:48:52;22.20;37.40
21171;DHT22;10743;52.160;20.910;2024-01-25T13:51:19;22.20;36.60
21171;DHT22;10743;52.160;20.910;2024-01-25T13:53:46;22.20;36.50
21171;DHT22;10743;52.160;20.910;2024-01-25T13:56:16;22.10;36.40
21171;DHT22;10743;52.160;20.910;2024-01-25T13:58:46;22.10;36.40
21171;DHT22;10743;52.160;20.910;2024-01-25T14:01:17;22.00;36.40
21171;DHT22;10743;52.160;20.910;2024-01-25T14:03:44;22.00;36.40
21171;DHT22;10743;52.160;20.910;2024-01-25T14:06:11;21.90;36.30
21171;DHT22;10743;52.160;20.910;2024-01-25T14:08:39;21.90;36.40
21171;DHT22;10743;52.160;20.910;2024-01-25T14:11:06;21.80;36.20
21171;DHT22;10743;52.160;20.910;2024-01-25T14:13:34;21.80;36.30
21171;DHT22;10743;52.160;20.910;2024-01-25T14:16:01;21.80;36.30
21171;DHT22;10743;52.160;20.910;2024-01-25T14:18:35;21.80;36.40
21171;DHT22;10743;52.160;20.910;2024-01-25T14:21:31;21.70;36.40
21171;DHT22;10743;52.160;20.910;2024-01-25T14:24:08;21.70;36.40
21171;DHT22;10743;52.160;20.910;2024-01-25T14:26:51;21.70;36.40
21171;DHT22;10743;52.160;20.910;2024-01-25T14:29:18;21.70;36.30
21171;DHT22;10743;52.160;20.910;2024-01-25T14:31:45;21.70;36.30
21171;DHT22;10743;52.160;20.910;2024-01-25T14:34:12;21.70;36.20
21171;DHT22;10743;52.160;20.910;2024-01-25T14:36:40;21.70;36.30
21171;DHT22;10743;52.160;20.910;2024-01-25T14:39:07;21.50;36.30
21171;DHT22;10743;52.160;20.910;2024-01-25T14:41:35;21.60;36.30
21171;DHT22;10743;52.160;20.910;2024-01-25T14:44:02;21.60;36.30
21171;DHT22;10743;52.160;20.910;2024-01-25T14:46:29;21.50;36.30
21171;DHT22;10743;52.160;20.910;2024-01-25T14:48:56;21.50;36.20
21171;DHT22;10743;52.160;20.910;2024-01-25T14:51:24;21.50;36.00
21171;DHT22;10743;52.160;20.910;2024-01-25T14:53:51;21.50;35.90
21171;DHT22;10743;52.160;20.910;2024-01-25T14:56:19;21.50;36.00
21171;DHT22;10743;52.160;20.910;2024-01-25T14:58:45;21.40;35.90
21171;DHT22;10743;52.160;20.910;2024-01-25T15:01:14;21.50;35.80
21171;DHT22;10743;52.160;20.910;2024-01-25T15:03:45;21.40;35.70
21171;DHT22;10743;52.160;20.910;2024-01-25T15:06:12;21.40;35.70
21171;DHT22;10743;52.160;20.910;2024-01-25T15:08:40;21.40;35.70
21171;DHT22;10743;52.160;20.910;2024-01-25T15:11:07;21.40;35.80
21171;DHT22;10743;52.160;20.910;2024-01-25T15:13:34;21.40;35.80
21171;DHT22;10743;52.160;20.910;2024-01-25T15:16:01;21.40;35.80
21171;DHT22;10743;52.160;20.910;2024-01-25T15:18:29;21.40;35.80
21171;DHT22;10743;52.160;20.910;2024-01-25T15:20:56;21.40;35.30
21171;DHT22;10743;52.160;20.910;2024-01-25T15:23:27;21.40;35.40
21171;DHT22;10743;52.160;20.910;2024-01-25T15:26:15;21.30;35.10